createdAt,value
2019-01-30T00:01:15.777Z,2.90
2019-01-30T00:03:43.691Z,3.63
2019-01-30T00:06:11.651Z,3.57
2019-01-30T00:08:39.588Z,3.80
2019-01-30T00:11:07.617Z,3.43
2019-01-30T00:13:35.735Z,3.00
2019-01-30T00:16:03.693Z,3.53
2019-01-30T00:18:31.733Z,3.47
2019-01-30T00:20:59.851Z,3.53
2019-01-30T00:23:29.159Z,3.53
2019-01-30T00:25:57.144Z,3.53
2019-01-30T00:28:25.380Z,3.43
2019-01-30T00:30:53.291Z,3.83
2019-01-30T00:33:21.290Z,3.57
2019-01-30T00:35:49.386Z,3.90
2019-01-30T00:38:17.373Z,3.37
2019-01-30T00:40:45.471Z,3.53
2019-01-30T00:43:14.268Z,3.27
2019-01-30T00:45:45.367Z,3.30
2019-01-30T00:48:14.645Z,3.70
2019-01-30T00:50:42.628Z,2.93
2019-01-30T00:53:10.669Z,3.10
2019-01-30T00:55:38.595Z,3.50
2019-01-30T00:58:06.931Z,3.67
2019-01-30T01:00:35.056Z,3.47
2019-01-30T01:03:05.714Z,3.40
2019-01-30T01:05:33.819Z,2.93
2019-01-30T01:08:04.788Z,3.20
2019-01-30T01:10:32.730Z,3.07
2019-01-30T01:13:00.720Z,3.23
2019-01-30T01:15:28.691Z,3.27
2019-01-30T01:17:56.879Z,3.30
2019-01-30T01:20:27.519Z,3.13
2019-01-30T01:22:55.435Z,3.33
2019-01-30T01:25:23.719Z,3.10
2019-01-30T01:27:51.765Z,2.90
2019-01-30T01:30:25.137Z,3.10
2019-01-30T01:32:51.725Z,2.93
2019-01-30T01:35:19.791Z,3.27
2019-01-30T01:37:49.548Z,3.60
2019-01-30T01:40:17.533Z,3.13
2019-01-30T01:42:45.642Z,3.70
2019-01-30T01:45:15.093Z,3.40
2019-01-30T01:47:48.966Z,3.70
2019-01-30T01:50:18.129Z,3.63
2019-01-30T01:52:46.164Z,3.80
2019-01-30T01:55:14.380Z,3.60
2019-01-30T01:57:42.291Z,3.50
2019-01-30T02:00:11.944Z,3.60
2019-01-30T02:02:39.947Z,3.83
2019-01-30T02:05:09.247Z,3.70
2019-01-30T02:07:38.942Z,3.40
2019-01-30T02:10:07.456Z,3.90
2019-01-30T02:12:36.000Z,4.13
2019-01-30T02:15:04.375Z,3.73
2019-01-30T02:17:37.230Z,3.63
2019-01-30T02:20:06.139Z,3.60
2019-01-30T02:22:35.880Z,3.60
2019-01-30T02:25:04.542Z,3.30
2019-01-30T02:27:34.120Z,3.70
2019-01-30T02:30:02.351Z,3.93
2019-01-30T02:32:30.415Z,3.73
2019-01-30T02:34:58.359Z,3.50
2019-01-30T02:37:28.647Z,3.60
2019-01-30T02:39:59.812Z,3.50
2019-01-30T02:42:28.040Z,3.80
2019-01-30T02:44:56.077Z,3.23
2019-01-30T02:47:24.318Z,3.70
2019-01-30T02:49:52.347Z,3.40
2019-01-30T02:52:20.354Z,3.63
2019-01-30T02:54:48.429Z,3.80
2019-01-30T02:57:16.411Z,3.60
2019-01-30T02:59:44.337Z,3.30
2019-01-30T03:02:24.819Z,3.50
2019-01-30T03:04:52.809Z,3.47
2019-01-30T03:07:20.719Z,3.53
2019-01-30T03:09:48.765Z,3.53
2019-01-30T03:12:16.714Z,3.37
2019-01-30T03:14:44.696Z,3.50
2019-01-30T03:17:12.811Z,3.70
2019-01-30T03:19:40.742Z,3.53
2019-01-30T03:22:08.964Z,3.50
2019-01-30T03:24:42.955Z,3.10
2019-01-30T03:27:10.911Z,3.20
2019-01-30T03:29:38.958Z,3.20
2019-01-30T03:32:06.885Z,3.00
2019-01-30T03:34:35.103Z,3.30
2019-01-30T03:37:03.115Z,3.50
2019-01-30T03:39:31.108Z,3.03
2019-01-30T03:41:59.107Z,3.50
2019-01-30T03:44:27.019Z,3.10
2019-01-30T03:46:55.358Z,3.00
2019-01-30T03:49:23.342Z,3.03
2019-01-30T03:51:51.311Z,3.30
2019-01-30T03:54:19.280Z,2.80
2019-01-30T03:56:47.239Z,3.07
2019-01-30T03:59:15.227Z,2.67
2019-01-30T04:01:43.200Z,2.97
2019-01-30T04:04:11.199Z,2.93
2019-01-30T04:06:39.339Z,2.97
2019-01-30T04:09:07.592Z,2.90
2019-01-30T04:11:35.558Z,2.57
2019-01-30T04:14:06.493Z,2.70
2019-01-30T04:16:34.494Z,2.90
2019-01-30T04:19:02.515Z,2.50
2019-01-30T04:21:30.447Z,2.30
2019-01-30T04:23:58.582Z,2.77
2019-01-30T04:26:26.557Z,2.63
2019-01-30T04:28:54.707Z,2.60
2019-01-30T04:31:22.848Z,2.90
2019-01-30T04:33:50.778Z,2.80
2019-01-30T04:36:21.060Z,2.60
2019-01-30T04:38:49.087Z,2.80
2019-01-30T04:41:17.039Z,2.67
2019-01-30T04:43:45.028Z,2.70
2019-01-30T04:46:13.580Z,2.33
2019-01-30T04:48:41.652Z,2.50
2019-01-30T04:51:12.523Z,2.23
2019-01-30T04:53:40.536Z,2.50
2019-01-30T04:56:08.685Z,2.60
2019-01-30T04:58:36.615Z,2.80
2019-01-30T05:01:07.878Z,2.80
2019-01-30T05:03:35.894Z,2.67
2019-01-30T05:06:04.702Z,2.60
2019-01-30T05:08:32.707Z,2.70
2019-01-30T05:11:00.756Z,2.83
2019-01-30T05:13:28.843Z,3.73
2019-01-30T05:15:58.181Z,2.63
2019-01-30T05:18:28.778Z,2.70
2019-01-30T05:21:01.303Z,3.43
2019-01-30T05:23:29.585Z,2.90
2019-01-30T05:25:59.928Z,2.50
2019-01-30T05:28:27.305Z,2.77
2019-01-30T05:30:55.303Z,2.77
2019-01-30T05:33:23.227Z,2.87
2019-01-30T05:35:51.225Z,5.00
2019-01-30T05:38:19.287Z,3.10
2019-01-30T05:40:47.424Z,2.80
2019-01-30T05:43:15.379Z,2.80
2019-01-30T05:45:43.511Z,2.83
2019-01-30T05:48:11.616Z,2.90
2019-01-30T05:50:39.865Z,2.90
2019-01-30T05:53:07.852Z,2.63
2019-01-30T05:55:35.889Z,2.93
2019-01-30T05:58:05.837Z,3.00
2019-01-30T06:00:41.128Z,3.10
2019-01-30T06:03:12.095Z,2.90
2019-01-30T06:05:40.336Z,3.00
2019-01-30T06:08:11.339Z,3.13
2019-01-30T06:10:39.478Z,3.00
2019-01-30T06:13:07.553Z,3.00
2019-01-30T06:15:35.577Z,2.90
2019-01-30T06:18:03.578Z,2.90
2019-01-30T06:20:32.712Z,3.00
2019-01-30T06:23:01.827Z,3.10
2019-01-30T06:25:30.127Z,3.37
2019-01-30T06:28:00.624Z,3.27
2019-01-30T06:30:28.707Z,3.13
2019-01-30T06:32:56.627Z,3.20
2019-01-30T06:35:24.574Z,2.90
2019-01-30T06:37:55.308Z,3.13
2019-01-30T06:40:24.791Z,3.10
2019-01-30T06:42:53.229Z,2.80
2019-01-30T06:45:21.284Z,2.77
2019-01-30T06:47:49.311Z,3.00
2019-01-30T06:50:17.355Z,3.33
2019-01-30T06:52:45.579Z,3.50
2019-01-30T06:55:14.823Z,3.80
2019-01-30T06:57:42.844Z,3.90
2019-01-30T07:00:16.930Z,3.80
2019-01-30T07:02:44.967Z,3.40
2019-01-30T07:05:13.213Z,3.70
2019-01-30T07:07:43.511Z,3.40
2019-01-30T07:10:13.412Z,3.60
2019-01-30T07:12:43.893Z,3.40
2019-01-30T07:15:12.300Z,3.27
2019-01-30T07:17:43.403Z,3.47
2019-01-30T07:20:13.160Z,3.33
2019-01-30T07:22:41.280Z,3.60
2019-01-30T07:25:09.764Z,3.17
2019-01-30T07:27:37.766Z,3.80
2019-01-30T07:30:09.351Z,3.33
2019-01-30T07:32:42.329Z,3.40
2019-01-30T07:35:07.707Z,3.90
2019-01-30T07:37:35.761Z,3.50
2019-01-30T07:40:04.210Z,3.50
2019-01-30T07:42:32.475Z,3.20
2019-01-30T07:45:00.416Z,3.37
2019-01-30T07:47:28.460Z,3.00
2019-01-30T07:49:58.294Z,3.27
2019-01-30T07:52:26.053Z,3.70
2019-01-30T07:54:54.072Z,3.10
2019-01-30T07:57:22.201Z,2.90
2019-01-30T07:59:50.290Z,2.87
2019-01-30T08:02:18.320Z,3.40
2019-01-30T08:04:46.696Z,3.07
2019-01-30T08:07:14.804Z,2.90
2019-01-30T08:09:43.319Z,3.03
2019-01-30T08:12:13.854Z,2.80
2019-01-30T08:14:41.841Z,2.67
2019-01-30T08:17:09.898Z,3.10
2019-01-30T08:19:38.148Z,3.47
2019-01-30T08:22:06.359Z,3.10
2019-01-30T08:24:34.789Z,3.07
2019-01-30T08:27:03.254Z,3.00
2019-01-30T08:29:31.350Z,3.00
2019-01-30T08:31:59.436Z,3.10
2019-01-30T08:34:27.452Z,3.10
2019-01-30T08:36:55.531Z,2.93
2019-01-30T08:39:23.571Z,3.07
2019-01-30T08:41:51.907Z,3.60
2019-01-30T08:44:19.882Z,3.87
2019-01-30T08:46:47.859Z,3.60
2019-01-30T08:49:15.852Z,3.30
2019-01-30T08:51:44.299Z,3.43
2019-01-30T08:54:12.329Z,3.33
2019-01-30T08:56:52.358Z,3.17
2019-01-30T08:59:10.006Z,3.70
2019-01-30T09:01:38.492Z,3.43
2019-01-30T09:04:06.664Z,3.87
2019-01-30T09:06:34.696Z,3.40
2019-01-30T09:09:02.757Z,3.37
2019-01-30T09:11:30.849Z,3.93
2019-01-30T09:13:58.820Z,3.53
2019-01-30T09:16:26.894Z,3.50
2019-01-30T09:18:55.091Z,4.00
2019-01-30T09:21:23.047Z,3.97
2019-01-30T09:23:50.993Z,3.97
2019-01-30T09:26:19.008Z,4.40
2019-01-30T09:28:46.980Z,4.13
2019-01-30T09:31:14.968Z,3.67
2019-01-30T09:33:43.573Z,4.23
2019-01-30T09:36:11.722Z,4.10
2019-01-30T09:38:39.873Z,4.23
2019-01-30T09:41:07.918Z,3.93
2019-01-30T09:43:35.989Z,3.13
2019-01-30T09:46:03.992Z,3.53
2019-01-30T09:48:31.952Z,3.70
2019-01-30T09:51:01.035Z,3.50
2019-01-30T09:53:29.141Z,3.33
2019-01-30T09:55:57.205Z,3.80
2019-01-30T09:58:25.364Z,3.57
2019-01-30T10:00:53.359Z,3.57
2019-01-30T10:03:21.391Z,3.97
2019-01-30T10:05:49.404Z,3.50
2019-01-30T10:08:17.553Z,3.70
2019-01-30T10:10:45.624Z,3.90
2019-01-30T10:13:13.686Z,3.40
2019-01-30T10:15:45.749Z,3.63
2019-01-30T10:18:16.092Z,3.83
2019-01-30T10:20:45.443Z,3.87
2019-01-30T10:23:13.556Z,3.50
2019-01-30T10:25:45.657Z,3.70
2019-01-30T10:28:16.551Z,3.93
2019-01-30T10:30:44.365Z,3.90
2019-01-30T10:33:12.383Z,3.87
2019-01-30T10:35:43.932Z,4.30
2019-01-30T10:38:13.705Z,4.53
2019-01-30T10:40:45.796Z,4.70
2019-01-30T10:43:17.004Z,4.90
2019-01-30T10:45:45.366Z,5.03
2019-01-30T10:48:13.542Z,4.53
2019-01-30T10:50:42.806Z,4.37
2019-01-30T10:53:10.921Z,4.80
2019-01-30T10:55:38.895Z,6.00
2019-01-30T10:58:08.390Z,5.33
2019-01-30T11:00:40.504Z,5.87
2019-01-30T11:03:08.650Z,5.67
2019-01-30T11:05:36.707Z,5.37
2019-01-30T11:08:04.912Z,4.23
2019-01-30T11:10:33.157Z,4.53
2019-01-30T11:13:01.312Z,5.17
2019-01-30T11:15:31.605Z,4.80
2019-01-30T11:17:59.733Z,4.73
2019-01-30T11:20:27.966Z,4.93
2019-01-30T11:22:56.255Z,4.80
2019-01-30T11:25:27.451Z,5.30
2019-01-30T11:27:55.705Z,5.17
2019-01-30T11:30:24.016Z,5.07
2019-01-30T11:32:55.601Z,5.27
2019-01-30T11:35:26.462Z,5.40
2019-01-30T11:37:54.892Z,4.93
2019-01-30T11:40:23.130Z,5.23
2019-01-30T11:42:51.344Z,4.93
2019-01-30T11:45:20.602Z,5.10
2019-01-30T11:47:48.918Z,5.13
2019-01-30T11:50:17.171Z,4.77
2019-01-30T11:52:45.411Z,5.33
2019-01-30T11:55:14.051Z,5.00
2019-01-30T11:57:42.324Z,5.13
2019-01-30T12:00:13.492Z,4.73
2019-01-30T12:02:47.933Z,4.83
2019-01-30T12:05:13.392Z,5.13
2019-01-30T12:07:41.500Z,5.23
2019-01-30T12:10:10.091Z,5.17
2019-01-30T12:12:38.250Z,5.03
2019-01-30T12:15:07.931Z,5.03
2019-01-30T12:17:36.009Z,5.20
2019-01-30T12:20:04.783Z,5.73
2019-01-30T12:22:36.522Z,5.40
2019-01-30T12:25:05.961Z,5.13
2019-01-30T12:27:34.038Z,4.83
2019-01-30T12:30:04.912Z,5.40
2019-01-30T12:32:32.983Z,4.73
2019-01-30T12:35:02.768Z,5.00
2019-01-30T12:37:30.947Z,5.33
2019-01-30T12:40:02.136Z,4.60
2019-01-30T12:42:31.331Z,4.90
2019-01-30T12:45:02.895Z,5.30
2019-01-30T12:47:32.113Z,5.20
2019-01-30T12:50:00.319Z,5.47
2019-01-30T12:52:28.953Z,5.53
2019-01-30T12:54:57.084Z,5.10
2019-01-30T12:57:30.284Z,5.10
2019-01-30T12:59:59.420Z,5.67
2019-01-30T13:02:28.795Z,5.10
2019-01-30T13:04:59.790Z,5.63
2019-01-30T13:07:27.901Z,5.07
2019-01-30T13:09:56.143Z,5.27
2019-01-30T13:12:24.217Z,5.20
2019-01-30T13:14:52.825Z,4.67
2019-01-30T13:17:23.907Z,4.80
2019-01-30T13:19:54.426Z,4.47
2019-01-30T13:22:22.728Z,4.53
2019-01-30T13:24:50.793Z,5.20
2019-01-30T13:27:19.086Z,4.73
2019-01-30T13:29:48.413Z,4.90
2019-01-30T13:32:22.455Z,4.83
2019-01-30T13:34:51.642Z,5.10
2019-01-30T13:37:19.874Z,5.60
2019-01-30T13:39:48.848Z,4.80
2019-01-30T13:42:17.081Z,5.10
2019-01-30T13:44:45.411Z,5.53
2019-01-30T13:47:13.695Z,4.87
2019-01-30T13:49:41.958Z,4.90
2019-01-30T13:52:11.394Z,5.27
2019-01-30T13:54:39.727Z,4.80
2019-01-30T13:57:07.879Z,5.00
2019-01-30T13:59:36.060Z,5.53
2019-01-30T14:02:04.484Z,5.40
2019-01-30T14:04:32.676Z,5.43
2019-01-30T14:07:01.623Z,5.00
2019-01-30T14:09:33.077Z,5.20
2019-01-30T14:12:01.448Z,4.97
2019-01-30T14:14:29.790Z,5.20
2019-01-30T14:16:58.126Z,6.87
2019-01-30T14:19:26.318Z,5.30
2019-01-30T14:21:54.876Z,5.33
2019-01-30T14:24:23.379Z,4.17
2019-01-30T14:26:53.885Z,5.83
2019-01-30T14:29:22.294Z,4.93
2019-01-30T14:31:50.914Z,5.00
2019-01-30T14:34:19.028Z,5.03
2019-01-30T14:36:50.224Z,8.60
2019-01-30T14:39:19.105Z,4.60
2019-01-30T14:41:48.804Z,4.77
2019-01-30T14:44:20.672Z,4.47
2019-01-30T14:46:48.811Z,4.73
2019-01-30T14:49:18.713Z,4.23
2019-01-30T14:51:50.561Z,5.33
2019-01-30T14:54:18.744Z,4.50
2019-01-30T14:56:46.906Z,4.17
2019-01-30T14:59:16.309Z,4.30
2019-01-30T15:01:44.647Z,4.53
2019-01-30T15:04:13.065Z,5.13
2019-01-30T15:06:41.574Z,4.57
2019-01-30T15:09:10.006Z,4.80
2019-01-30T15:11:38.109Z,4.80
2019-01-30T15:14:06.303Z,5.67
2019-01-30T15:16:37.353Z,4.73
2019-01-30T15:19:05.939Z,5.40
2019-01-30T15:21:34.249Z,4.70
2019-01-30T15:24:02.551Z,5.80
2019-01-30T15:26:31.625Z,5.20
2019-01-30T15:28:59.781Z,5.30
2019-01-30T15:31:28.104Z,5.03
2019-01-30T15:33:56.225Z,4.87
2019-01-30T15:36:26.191Z,5.47
2019-01-30T15:38:54.747Z,4.97
2019-01-30T15:41:23.696Z,5.60
2019-01-30T15:43:53.164Z,5.33
2019-01-30T15:46:21.429Z,5.13
2019-01-30T15:48:49.823Z,5.10
2019-01-30T15:51:19.794Z,5.50
2019-01-30T15:53:53.428Z,5.73
2019-01-30T15:56:21.859Z,5.90
2019-01-30T15:58:50.172Z,4.60
2019-01-30T16:01:27.157Z,4.37
2019-01-30T16:03:55.344Z,4.73
2019-01-30T16:06:27.909Z,5.57
2019-01-30T16:08:56.428Z,5.50
2019-01-30T16:11:27.860Z,4.90
2019-01-30T16:13:56.738Z,4.43
2019-01-30T16:16:28.037Z,4.80
2019-01-30T16:18:58.683Z,4.47
2019-01-30T16:21:27.655Z,5.10
2019-01-30T16:24:27.622Z,5.13
2019-01-30T16:26:56.455Z,5.43
2019-01-30T16:29:29.028Z,5.40
2019-01-30T16:31:57.630Z,5.20
2019-01-30T16:34:25.936Z,4.77
2019-01-30T16:36:57.120Z,5.23
2019-01-30T16:39:25.606Z,4.50
2019-01-30T16:42:06.505Z,4.93
2019-01-30T16:44:39.014Z,5.40
2019-01-30T16:47:08.898Z,5.20
2019-01-30T16:49:37.485Z,5.07
2019-01-30T16:52:09.442Z,4.87
2019-01-30T16:54:38.141Z,5.37
2019-01-30T16:57:06.445Z,4.67
2019-01-30T16:59:38.095Z,5.70
2019-01-30T17:02:07.185Z,6.40
2019-01-30T17:04:39.399Z,5.60
2019-01-30T17:07:07.830Z,5.37
2019-01-30T17:09:36.609Z,5.53
2019-01-30T17:12:04.999Z,5.30
2019-01-30T17:14:33.408Z,5.33
2019-01-30T17:17:04.242Z,5.60
2019-01-30T17:19:33.239Z,6.00
2019-01-30T17:22:01.610Z,6.17
2019-01-30T17:24:29.890Z,5.67
2019-01-30T17:26:58.528Z,6.37
2019-01-30T17:29:45.144Z,5.30
2019-01-30T17:32:13.312Z,5.43
2019-01-30T17:34:41.619Z,5.63
2019-01-30T17:37:10.948Z,5.93
2019-01-30T17:39:39.279Z,6.27
2019-01-30T17:42:07.445Z,10.17
2019-01-30T17:44:35.902Z,7.73
2019-01-30T17:47:14.278Z,6.37
2019-01-30T17:49:44.809Z,6.60
2019-01-30T17:52:16.243Z,6.97
2019-01-30T17:54:48.276Z,6.97
2019-01-30T17:57:16.939Z,7.43
2019-01-30T17:59:45.090Z,7.07
2019-01-30T18:02:16.178Z,7.83
2019-01-30T18:04:44.440Z,7.30
2019-01-30T18:07:21.146Z,6.97
2019-01-30T18:09:49.648Z,7.30
2019-01-30T18:12:19.941Z,7.63
2019-01-30T18:14:49.360Z,7.17
2019-01-30T18:17:17.848Z,7.80
2019-01-30T18:19:46.424Z,6.67
2019-01-30T18:22:15.592Z,10.33
2019-01-30T18:24:45.206Z,8.27
2019-01-30T18:27:14.010Z,14.07
2019-01-30T18:29:42.416Z,10.33
2019-01-30T18:32:14.713Z,8.57
2019-01-30T18:34:43.105Z,9.07
2019-01-30T18:37:11.647Z,9.10
2019-01-30T18:39:40.472Z,8.70
2019-01-30T18:42:09.981Z,8.10
2019-01-30T18:44:38.068Z,7.03
2019-01-30T18:47:07.423Z,7.83
2019-01-30T18:49:35.993Z,7.57
2019-01-30T18:52:04.552Z,8.07
2019-01-30T18:54:32.824Z,7.73
2019-01-30T18:57:00.966Z,7.13
2019-01-30T18:59:30.971Z,7.53
2019-01-30T19:01:58.813Z,11.97
2019-01-30T19:04:27.982Z,14.27
2019-01-30T19:06:56.054Z,9.00
2019-01-30T19:09:24.119Z,9.07
2019-01-30T19:11:55.753Z,7.43
2019-01-30T19:14:24.153Z,7.77
2019-01-30T19:16:52.471Z,7.27
2019-01-30T19:19:20.616Z,7.53
2019-01-30T19:21:48.860Z,7.50
2019-01-30T19:24:19.643Z,6.60
2019-01-30T19:26:46.777Z,6.97
2019-01-30T19:29:15.942Z,6.80
2019-01-30T19:31:43.998Z,6.60
2019-01-30T19:34:12.111Z,6.50
2019-01-30T19:36:40.255Z,7.10
2019-01-30T19:39:09.396Z,6.20
2019-01-30T19:41:37.825Z,7.50
2019-01-30T19:44:06.029Z,6.73
2019-01-30T19:46:34.169Z,6.27
2019-01-30T19:49:02.287Z,6.10
2019-01-30T19:51:30.422Z,7.00
2019-01-30T19:53:58.985Z,6.33
2019-01-30T19:56:27.243Z,7.23
2019-01-30T19:58:55.421Z,6.77
2019-01-30T20:01:35.716Z,6.23
2019-01-30T20:03:54.704Z,6.20
2019-01-30T20:06:22.765Z,6.30
2019-01-30T20:08:51.134Z,6.60
2019-01-30T20:11:19.242Z,5.90
2019-01-30T20:13:49.371Z,6.93
2019-01-30T20:16:17.353Z,6.33
2019-01-30T20:18:45.283Z,6.33
2019-01-30T20:21:15.623Z,6.40
2019-01-30T20:23:43.779Z,6.23
2019-01-30T20:26:12.770Z,6.03
2019-01-30T20:28:41.683Z,5.37
2019-01-30T20:31:09.981Z,6.60
2019-01-30T20:33:38.829Z,5.07
2019-01-30T20:36:09.429Z,5.63
2019-01-30T20:38:38.326Z,5.63
2019-01-30T20:41:07.047Z,5.87
2019-01-30T20:43:38.031Z,5.53
2019-01-30T20:46:06.406Z,5.50
2019-01-30T20:48:45.187Z,5.93
2019-01-30T20:51:04.156Z,5.23
2019-01-30T20:53:34.493Z,5.53
2019-01-30T20:56:02.559Z,4.63
2019-01-30T20:58:30.642Z,5.77
2019-01-30T21:01:01.237Z,5.47
2019-01-30T21:03:30.397Z,4.97
2019-01-30T21:05:58.485Z,5.03
2019-01-30T21:08:26.472Z,4.30
2019-01-30T21:10:54.551Z,4.57
2019-01-30T21:13:22.615Z,4.90
2019-01-30T21:15:50.602Z,5.37
2019-01-30T21:18:18.621Z,5.27
2019-01-30T21:20:46.804Z,4.60
2019-01-30T21:23:15.005Z,9.20
2019-01-30T21:25:43.074Z,6.43
2019-01-30T21:28:11.112Z,5.80
2019-01-30T21:30:39.631Z,4.67
2019-01-30T21:33:07.784Z,5.67
2019-01-30T21:35:35.989Z,4.50
2019-01-30T21:38:04.270Z,4.77
2019-01-30T21:40:32.303Z,5.23
2019-01-30T21:43:03.568Z,5.17
2019-01-30T21:45:33.221Z,5.00
2019-01-30T21:48:01.337Z,5.27
2019-01-30T21:50:29.495Z,4.60
2019-01-30T21:52:57.504Z,4.90
2019-01-30T21:55:28.354Z,4.67
2019-01-30T21:57:59.284Z,4.77
2019-01-30T22:00:27.986Z,5.07
2019-01-30T22:02:56.337Z,4.50
2019-01-30T22:05:25.119Z,4.23
2019-01-30T22:08:00.578Z,4.57
2019-01-30T22:10:26.776Z,4.10
2019-01-30T22:12:55.818Z,4.57
2019-01-30T22:15:23.921Z,4.67
2019-01-30T22:17:52.100Z,4.33
2019-01-30T22:20:21.843Z,4.53
2019-01-30T22:22:51.351Z,4.40
2019-01-30T22:25:21.720Z,4.10
2019-01-30T22:27:49.807Z,4.40
2019-01-30T22:30:19.100Z,4.60
2019-01-30T22:32:47.241Z,4.10
2019-01-30T22:35:15.317Z,4.50
2019-01-30T22:37:43.383Z,4.60
2019-01-30T22:40:11.548Z,4.23
2019-01-30T22:42:40.629Z,4.53
2019-01-30T22:45:09.661Z,4.63
2019-01-30T22:47:37.762Z,5.23
2019-01-30T22:50:06.332Z,4.27
2019-01-30T22:52:34.283Z,4.60
2019-01-30T22:55:02.284Z,4.77
2019-01-30T22:57:30.378Z,4.70
2019-01-30T22:59:58.438Z,4.30
2019-01-30T23:02:27.208Z,4.47
2019-01-30T23:05:16.914Z,4.20
2019-01-30T23:08:02.947Z,4.53
2019-01-30T23:10:49.986Z,4.20
2019-01-30T23:13:24.552Z,4.20
2019-01-30T23:16:14.669Z,4.23
2019-01-30T23:19:10.942Z,4.03
2019-01-30T23:21:42.596Z,3.87
2019-01-30T23:24:24.684Z,4.40
2019-01-30T23:26:58.738Z,4.23
2019-01-30T23:29:47.780Z,4.13
2019-01-30T23:32:30.723Z,4.13
2019-01-30T23:35:09.120Z,4.10
2019-01-30T23:37:56.222Z,4.57
2019-01-30T23:40:52.424Z,4.33
2019-01-30T23:43:37.059Z,3.93
2019-01-30T23:46:29.290Z,3.80
2019-01-30T23:49:13.828Z,4.47
2019-01-30T23:51:55.884Z,4.07
2019-01-30T23:54:48.792Z,4.17
2019-01-30T23:57:21.911Z,3.97
2019-01-30T23:59:56.259Z,4.10
